CheckWX is a tool to help pilots better visualize weather data.  It is not intended as a substitute for an official pre-flight weather briefing.

13:20:45 UTC

KAFW METAR
Fort Worth Alliance Airport
Fort Worth, Texas, USA
Current

28 mins ago

KAFW 211253Z 16012KT 10SM BKN019 BKN250 26/22 A3005 RMK AO2 SLP158 T02560222
Observed
Sep-21 @ 12:53 UTC
Wind
  • 160° at 12 KTS
Visibility
10 SM
Flight Rules
MVFR
Cloud Levels
  • Broken at 1,900' AGL
  • Broken at 25,000' AGL
Temperature
26°C / 79°F
Dewpoint
22°C / 72°F
Humidity
79%
Altimeter
30.05" Hg
Pressure
1017.62 hPa
Previous

1 hour ago

KAFW 211212Z 17010KT 10SM BKN019 BKN250 25/22 A3004 RMK AO2 T02500217
Observed
Sep-21 @ 12:12 UTC
Wind
  • 170° at 10 KTS
Visibility
10 SM
Flight Rules
MVFR
Cloud Levels
  • Broken at 1,900' AGL
  • Broken at 25,000' AGL
Temperature
25°C / 77°F
Dewpoint
22°C / 72°F
Humidity
83%
Altimeter
30.04" Hg
Pressure
1017.32 hPa
Previous

1 hour ago

KAFW 211153Z 16013KT 10SM SCT017 SCT250 25/22 A3003 RMK AO2 SLP153 T02500217 10267 20250 53011
Observed
Sep-21 @ 11:53 UTC
Wind
  • 160° at 13 KTS
Visibility
10 SM
Flight Rules
VFR
Cloud Levels
  • Scattered at 1,700' AGL
  • Scattered at 25,000' AGL
Temperature
25°C / 77°F
Dewpoint
22°C / 72°F
Humidity
83%
Altimeter
30.03" Hg
Pressure
1016.92 hPa